Time;durP1;ratioP1;P1;durP2;ratioP2;P2;SDS_P1;SDS_P2;PMS_P1;PMS_P2;Temp;Humidity;BMP_temperature;BMP_pressure;BME280_temperature;BME280_humidity;BME280_pressure;Samples;Min_cycle;Max_cycle;Signal;HPM_P1;HPM_P2
2024/02/01 00:01:23;;;;;;;18.58;10.80;;;;;;;;;;5076582;28;20648;-72
2024/02/01 00:03:49;;;;;;;17.00;10.32;;;;;;;;;;5086736;28;20047;-73
2024/02/01 00:06:15;;;;;;;20.70;12.18;;;;;;;;;;5085788;28;20207;-72
2024/02/01 00:08:42;;;;;;;19.20;12.07;;;;;;;;;;5092933;28;20112;-73
2024/02/01 00:11:09;;;;;;;16.30;11.27;;;;;;;;;;5085611;28;20058;-72
2024/02/01 00:13:35;;;;;;;19.95;12.40;;;;;;;;;;5065955;28;20661;-72
2024/02/01 00:16:01;;;;;;;19.45;12.50;;;;;;;;;;5080458;28;20871;-72
2024/02/01 00:18:28;;;;;;;18.00;12.00;;;;;;;;;;5096820;28;20056;-73
2024/02/01 00:20:54;;;;;;;19.83;10.57;;;;;;;;;;5061632;28;20044;-72
2024/02/01 00:23:21;;;;;;;16.23;11.68;;;;;;;;;;5084678;28;20068;-72
2024/02/01 00:25:47;;;;;;;18.52;11.80;;;;;;;;;;5076459;28;20495;-72
2024/02/01 00:28:13;;;;;;;20.10;12.30;;;;;;;;;;5073208;28;20146;-72
2024/02/01 00:30:41;;;;;;;18.70;12.82;;;;;;;;;;5079144;28;20121;-73
2024/02/01 00:33:07;;;;;;;20.52;12.63;;;;;;;;;;5067171;28;20235;-72
2024/02/01 00:35:34;;;;;;;21.83;12.73;;;;;;;;;;5085876;28;20690;-73
2024/02/01 00:38:01;;;;;;;24.10;12.63;;;;;;;;;;5078552;28;20095;-71
2024/02/01 00:40:27;;;;;;;18.70;12.25;;;;;;;;;;5075673;28;20040;-72
2024/02/01 00:42:53;;;;;;;21.83;13.45;;;;;;;;;;5055888;28;20054;-71
2024/02/01 00:45:20;;;;;;;24.05;13.52;;;;;;;;;;5056285;28;20056;-77
2024/02/01 00:47:48;;;;;;;19.65;11.88;;;;;;;;;;5079745;28;20471;-73
2024/02/01 00:50:14;;;;;;;20.92;12.30;;;;;;;;;;5084969;28;20060;-71
2024/02/01 00:52:41;;;;;;;22.02;12.60;;;;;;;;;;5081521;28;20084;-71
2024/02/01 00:55:08;;;;;;;18.83;12.57;;;;;;;;;;5081168;28;20081;-72
2024/02/01 00:57:34;;;;;;;24.75;13.32;;;;;;;;;;5080823;28;20051;-71
2024/02/01 01:00:01;;;;;;;21.75;12.80;;;;;;;;;;5082748;28;20052;-71
2024/02/01 01:02:27;;;;;;;19.48;13.07;;;;;;;;;;5088138;28;20047;-71
2024/02/01 01:04:53;;;;;;;17.67;13.23;;;;;;;;;;5071238;28;20721;-72
2024/02/01 01:07:20;;;;;;;18.60;13.00;;;;;;;;;;5080471;28;20461;-73
2024/02/01 01:09:47;;;;;;;19.83;12.15;;;;;;;;;;5073996;28;20040;-72
2024/02/01 01:12:14;;;;;;;26.35;13.85;;;;;;;;;;5057488;28;20052;-71
2024/02/01 01:14:40;;;;;;;18.90;12.60;;;;;;;;;;5084518;28;20054;-71
2024/02/01 01:17:07;;;;;;;18.52;12.50;;;;;;;;;;5085645;28;20670;-72
2024/02/01 01:19:34;;;;;;;18.17;12.20;;;;;;;;;;5083905;28;20117;-71
2024/02/01 01:22:00;;;;;;;16.13;11.88;;;;;;;;;;5082566;28;20690;-71
2024/02/01 01:24:27;;;;;;;19.85;13.80;;;;;;;;;;5077952;28;20062;-72
2024/02/01 01:26:53;;;;;;;23.27;12.77;;;;;;;;;;5087578;28;20717;-71
2024/02/01 01:29:20;;;;;;;16.27;11.88;;;;;;;;;;5082946;28;20040;-71
2024/02/01 01:31:46;;;;;;;20.70;12.80;;;;;;;;;;5086045;28;20097;-72
2024/02/01 01:34:13;;;;;;;22.08;13.45;;;;;;;;;;5087407;28;20420;-72
2024/02/01 01:36:40;;;;;;;18.02;11.95;;;;;;;;;;5088817;28;20048;-73
2024/02/01 01:39:06;;;;;;;23.08;12.20;;;;;;;;;;5084427;28;20142;-71
2024/02/01 01:41:32;;;;;;;19.50;10.95;;;;;;;;;;5060872;28;20047;-70
2024/02/01 01:43:59;;;;;;;23.00;11.77;;;;;;;;;;5087955;28;20044;-71
2024/02/01 01:46:26;;;;;;;17.92;11.85;;;;;;;;;;5083608;28;20767;-72
2024/02/01 01:48:53;;;;;;;16.05;11.10;;;;;;;;;;5084865;28;20400;-72
2024/02/01 01:51:20;;;;;;;16.80;10.88;;;;;;;;;;5070079;28;20047;-71
2024/02/01 01:53:48;;;;;;;15.52;10.35;;;;;;;;;;5076237;28;20064;-71
2024/02/01 01:56:15;;;;;;;16.95;10.98;;;;;;;;;;5080968;28;20090;-71
2024/02/01 01:58:41;;;;;;;15.57;11.20;;;;;;;;;;5085748;28;20117;-71
2024/02/01 02:01:08;;;;;;;13.35;9.70;;;;;;;;;;5066130;28;20111;-72
2024/02/01 02:03:38;;;;;;;18.20;11.20;;;;;;;;;;5060657;28;20889;-71
2024/02/01 02:06:05;;;;;;;19.17;11.88;;;;;;;;;;5077281;28;20059;-71
2024/02/01 02:08:33;;;;;;;15.68;11.27;;;;;;;;;;5087568;28;20043;-72
2024/02/01 02:10:59;;;;;;;18.45;11.23;;;;;;;;;;5074233;28;20084;-71
2024/02/01 02:13:26;;;;;;;17.88;11.52;;;;;;;;;;5086225;28;20050;-72
2024/02/01 02:15:53;;;;;;;17.15;11.25;;;;;;;;;;5081222;28;20040;-71
2024/02/01 02:18:19;;;;;;;14.52;11.82;;;;;;;;;;5083605;28;20047;-72
2024/02/01 02:20:47;;;;;;;14.27;11.02;;;;;;;;;;5083733;28;20075;-71
2024/02/01 02:23:13;;;;;;;14.52;10.23;;;;;;;;;;5072617;28;20109;-72
2024/02/01 02:25:40;;;;;;;16.58;10.85;;;;;;;;;;5086740;28;20424;-71
2024/02/01 02:28:06;;;;;;;15.45;10.48;;;;;;;;;;5084790;28;20052;-72
2024/02/01 02:30:33;;;;;;;14.23;10.43;;;;;;;;;;5078850;28;20139;-71
2024/02/01 02:33:00;;;;;;;13.57;10.10;;;;;;;;;;5078227;28;20048;-71
2024/02/01 02:35:27;;;;;;;15.90;10.83;;;;;;;;;;5071655;28;20044;-71
2024/02/01 02:37:54;;;;;;;13.32;9.50;;;;;;;;;;5083086;28;20086;-72
2024/02/01 02:40:21;;;;;;;12.68;9.25;;;;;;;;;;5075250;28;20428;-73
2024/02/01 02:42:48;;;;;;;15.32;9.98;;;;;;;;;;5072342;28;20051;-72
2024/02/01 02:45:15;;;;;;;14.70;9.80;;;;;;;;;;5059753;28;20060;-72
2024/02/01 02:47:43;;;;;;;17.13;10.48;;;;;;;;;;5075497;28;20040;-72
2024/02/01 02:50:10;;;;;;;13.73;9.32;;;;;;;;;;5085584;28;20067;-72
2024/02/01 02:52:37;;;;;;;15.18;10.35;;;;;;;;;;5078310;28;20684;-71
2024/02/01 02:55:07;;;;;;;18.00;9.73;;;;;;;;;;5087328;28;20447;-71
2024/02/01 02:57:34;;;;;;;17.13;9.65;;;;;;;;;;5075610;28;20893;-72
2024/02/01 03:00:02;;;;;;;11.88;8.57;;;;;;;;;;5083238;28;20075;-72
2024/02/01 03:02:28;;;;;;;11.00;8.50;;;;;;;;;;5058693;28;20654;-72
2024/02/01 03:04:55;;;;;;;12.95;8.45;;;;;;;;;;5096826;28;20112;-73
2024/02/01 03:07:22;;;;;;;15.68;9.38;;;;;;;;;;5083001;28;20055;-72
2024/02/01 03:09:48;;;;;;;14.63;7.85;;;;;;;;;;5081140;28;20052;-72
2024/02/01 03:12:14;;;;;;;14.65;7.72;;;;;;;;;;5082688;28;20044;-73
2024/02/01 03:14:41;;;;;;;17.17;7.65;;;;;;;;;;5075966;28;20751;-72
2024/02/01 03:17:09;;;;;;;14.77;7.13;;;;;;;;;;5083833;28;20080;-72
2024/02/01 03:19:35;;;;;;;15.38;6.32;;;;;;;;;;5086330;28;20721;-73
2024/02/01 03:22:02;;;;;;;12.38;6.45;;;;;;;;;;5081240;28;20167;-72
2024/02/01 03:24:32;;;;;;;16.10;6.95;;;;;;;;;;5088372;28;20066;-73
2024/02/01 03:26:58;;;;;;;11.68;4.93;;;;;;;;;;5060891;28;20128;-73
2024/02/01 03:29:26;;;;;;;20.92;5.60;;;;;;;;;;5068311;28;20071;-72
2024/02/01 03:31:52;;;;;;;18.77;6.25;;;;;;;;;;5051518;28;20137;-72
2024/02/01 03:34:22;;;;;;;18.00;5.88;;;;;;;;;;5077900;28;20183;-72
2024/02/01 03:36:52;;;;;;;15.98;6.20;;;;;;;;;;5078820;28;20044;-72
2024/02/01 03:39:25;;;;;;;15.85;5.82;;;;;;;;;;5075851;28;20055;-72
2024/02/01 03:41:52;;;;;;;16.80;5.53;;;;;;;;;;5082606;28;20447;-72
2024/02/01 03:44:19;;;;;;;12.43;5.35;;;;;;;;;;5074723;28;20044;-72
2024/02/01 03:46:45;;;;;;;14.38;4.40;;;;;;;;;;5067161;28;20082;-72
2024/02/01 03:49:11;;;;;;;19.52;4.45;;;;;;;;;;5082681;28;20097;-71
2024/02/01 03:51:38;;;;;;;14.45;3.90;;;;;;;;;;5085358;28;20054;-72
2024/02/01 03:54:11;;;;;;;13.18;3.78;;;;;;;;;;5055264;28;20049;-72
2024/02/01 03:56:38;;;;;;;16.10;4.03;;;;;;;;;;5074035;28;20075;-72
2024/02/01 03:59:11;;;;;;;15.32;3.85;;;;;;;;;;5082554;28;20044;-72
2024/02/01 04:01:40;;;;;;;17.75;3.33;;;;;;;;;;5083772;28;20055;-72
2024/02/01 04:04:07;;;;;;;16.45;3.90;;;;;;;;;;5085308;28;20839;-72
2024/02/01 04:06:34;;;;;;;12.90;3.13;;;;;;;;;;5075833;28;20064;-71
2024/02/01 04:09:01;;;;;;;15.45;3.03;;;;;;;;;;5066751;28;20465;-72
2024/02/01 04:11:30;;;;;;;13.38;2.53;;;;;;;;;;5073649;28;20557;-72
2024/02/01 04:13:57;;;;;;;20.05;3.38;;;;;;;;;;5083760;28;20056;-72
2024/02/01 04:16:23;;;;;;;21.52;2.95;;;;;;;;;;5085388;28;20098;-72
2024/02/01 04:18:51;;;;;;;12.13;2.40;;;;;;;;;;5062240;28;20128;-71
2024/02/01 04:21:18;;;;;;;14.20;2.65;;;;;;;;;;5080776;28;20051;-72
2024/02/01 04:23:45;;;;;;;18.40;3.15;;;;;;;;;;5079020;28;20047;-72
2024/02/01 04:26:15;;;;;;;12.13;2.58;;;;;;;;;;5060514;28;20076;-71
2024/02/01 04:28:43;;;;;;;11.90;2.40;;;;;;;;;;5055567;28;20074;-72
2024/02/01 04:31:09;;;;;;;22.33;3.03;;;;;;;;;;5061245;28;20741;-71
2024/02/01 04:33:40;;;;;;;15.38;2.28;;;;;;;;;;5065984;28;20040;-72
2024/02/01 04:36:07;;;;;;;13.88;1.98;;;;;;;;;;5075105;28;20748;-72
2024/02/01 04:38:35;;;;;;;12.98;2.42;;;;;;;;;;5084339;28;20075;-72
2024/02/01 04:41:10;;;;;;;12.10;1.63;;;;;;;;;;5080071;28;20472;-72
2024/02/01 04:43:37;;;;;;;17.58;2.47;;;;;;;;;;5061700;28;20828;-72
2024/02/01 04:46:04;;;;;;;11.75;2.42;;;;;;;;;;5073535;28;20055;-71
2024/02/01 04:48:30;;;;;;;14.15;2.45;;;;;;;;;;5072581;28;20051;-72
2024/02/01 04:50:57;;;;;;;13.98;2.15;;;;;;;;;;5078884;28;20056;-72
2024/02/01 04:53:23;;;;;;;15.60;1.67;;;;;;;;;;5076072;28;20056;-73
2024/02/01 04:55:50;;;;;;;18.33;2.80;;;;;;;;;;5083487;28;20044;-72
2024/02/01 04:58:20;;;;;;;19.33;3.38;;;;;;;;;;5085382;28;20036;-72
2024/02/01 05:00:47;;;;;;;18.38;2.15;;;;;;;;;;5065715;28;20405;-72
2024/02/01 05:03:16;;;;;;;14.82;1.83;;;;;;;;;;5061840;28;20075;-71
2024/02/01 05:05:45;;;;;;;22.45;2.38;;;;;;;;;;5076049;28;20047;-72
2024/02/01 05:08:15;;;;;;;21.92;2.50;;;;;;;;;;5077646;28;20090;-72
2024/02/01 05:10:45;;;;;;;18.60;2.55;;;;;;;;;;5078512;28;20075;-73
2024/02/01 05:13:12;;;;;;;14.60;2.45;;;;;;;;;;5086701;28;20075;-72
2024/02/01 05:15:39;;;;;;;14.45;2.35;;;;;;;;;;5078876;28;20040;-71
2024/02/01 05:18:06;;;;;;;17.80;1.88;;;;;;;;;;5082922;28;20075;-72
2024/02/01 05:20:32;;;;;;;16.75;2.78;;;;;;;;;;5072412;28;20561;-72
2024/02/01 05:22:59;;;;;;;21.25;4.28;;;;;;;;;;5064169;28;20044;-72
2024/02/01 05:25:27;;;;;;;14.27;2.42;;;;;;;;;;5058871;28;20075;-72
2024/02/01 05:27:54;;;;;;;13.82;1.88;;;;;;;;;;5052919;28;20059;-71
2024/02/01 05:30:21;;;;;;;16.52;2.13;;;;;;;;;;5073877;28;20048;-72
2024/02/01 05:32:52;;;;;;;24.33;2.50;;;;;;;;;;5091853;28;20043;-72
2024/02/01 05:35:26;;;;;;;18.38;2.40;;;;;;;;;;5086147;28;20059;-73
2024/02/01 05:37:53;;;;;;;13.57;2.30;;;;;;;;;;5074571;28;20492;-72
2024/02/01 05:40:20;;;;;;;17.45;2.60;;;;;;;;;;5069343;28;20044;-72
2024/02/01 05:42:47;;;;;;;16.73;2.35;;;;;;;;;;5095373;28;20048;-71
2024/02/01 05:45:13;;;;;;;12.52;2.22;;;;;;;;;;5076211;28;20055;-71
2024/02/01 05:47:40;;;;;;;15.00;2.47;;;;;;;;;;5051535;28;20099;-72
2024/02/01 05:50:07;;;;;;;13.23;1.92;;;;;;;;;;5082380;28;20481;-72
2024/02/01 05:52:35;;;;;;;18.63;2.30;;;;;;;;;;5076051;28;20044;-72
2024/02/01 05:55:05;;;;;;;18.20;2.58;;;;;;;;;;5068975;28;20428;-71
2024/02/01 05:57:32;;;;;;;16.42;2.25;;;;;;;;;;5052701;28;20072;-71
2024/02/01 05:59:59;;;;;;;17.55;2.50;;;;;;;;;;5087168;28;20677;-71
2024/02/01 06:02:27;;;;;;;15.25;2.33;;;;;;;;;;5069832;28;20047;-71
2024/02/01 06:04:53;;;;;;;12.88;2.03;;;;;;;;;;5076754;28;20039;-71
2024/02/01 06:07:19;;;;;;;16.10;2.50;;;;;;;;;;5082529;28;20051;-71
2024/02/01 06:09:46;;;;;;;16.38;2.50;;;;;;;;;;5082612;28;20050;-72
2024/02/01 06:12:12;;;;;;;13.55;2.20;;;;;;;;;;5080241;28;20472;-72
2024/02/01 06:14:39;;;;;;;13.40;2.65;;;;;;;;;;5075427;28;20037;-72
2024/02/01 06:17:05;;;;;;;15.57;3.05;;;;;;;;;;5083517;28;20050;-72
2024/02/01 06:19:32;;;;;;;14.57;2.83;;;;;;;;;;5068950;28;20101;-72
2024/02/01 06:21:58;;;;;;;22.08;2.92;;;;;;;;;;5073797;28;20044;-72
2024/02/01 06:24:26;;;;;;;14.98;2.28;;;;;;;;;;5063993;28;20105;-71
2024/02/01 06:26:54;;;;;;;16.33;3.17;;;;;;;;;;5082119;28;20774;-72
2024/02/01 06:29:21;;;;;;;15.18;2.90;;;;;;;;;;5076815;28;20527;-72
2024/02/01 06:31:49;;;;;;;15.68;2.97;;;;;;;;;;5056388;28;20101;-72
2024/02/01 06:34:18;;;;;;;11.70;2.17;;;;;;;;;;5061051;28;20143;-72
2024/02/01 06:36:53;;;;;;;16.95;2.63;;;;;;;;;;5068917;28;20043;-72
2024/02/01 06:45:19;;;;;;;16.58;2.75;;;;;;;;;;5026013;28;20100;-72
2024/02/01 06:47:49;;;;;;;14.30;2.67;;;;;;;;;;5032549;28;20534;-71
2024/02/01 06:50:17;;;;;;;21.35;3.22;;;;;;;;;;5020973;28;20045;-72
2024/02/01 06:52:44;;;;;;;13.40;2.27;;;;;;;;;;5032384;28;20739;-72
2024/02/01 06:57:48;;;;;;;15.10;2.33;;;;;;;;;;5021399;28;20116;-72
2024/02/01 07:03:13;;;;;;;23.27;2.83;;;;;;;;;;5021523;28;20057;-71
2024/02/01 07:05:58;;;;;;;15.48;2.35;;;;;;;;;;4996422;28;20045;-72
2024/02/01 07:11:28;;;;;;;18.33;2.78;;;;;;;;;;5023290;28;20179;-72
2024/02/01 07:16:35;;;;;;;14.70;2.22;;;;;;;;;;5066061;28;20052;-72
2024/02/01 07:20:14;;;;;;;15.10;2.08;;;;;;;;;;5071675;28;20048;-71
2024/02/01 07:22:09;;;;;;;12.90;2.67;;;;;;;;;;5047809;28;20051;-71
2024/02/01 07:24:59;;;;;;;12.07;2.22;;;;;;;;;;5076365;28;20048;-72
2024/02/01 07:57:58;;;;;;;24.85;3.20;;;;;;;;;;5080175;28;20116;-71
2024/02/01 08:00:31;;;;;;;18.70;3.50;;;;;;;;;;5061678;28;20056;-72
2024/02/01 08:03:03;;;;;;;14.25;3.38;;;;;;;;;;5072277;28;20044;-72
2024/02/01 08:08:16;;;;;;;16.98;2.80;;;;;;;;;;5078786;28;20884;-73
2024/02/01 08:10:43;;;;;;;19.75;2.58;;;;;;;;;;5066383;28;20048;-74
2024/02/01 08:13:12;;;;;;;17.23;3.03;;;;;;;;;;5080830;28;20062;-73
2024/02/01 08:15:41;;;;;;;14.70;2.50;;;;;;;;;;5079950;28;20047;-74
2024/02/01 08:18:09;;;;;;;16.75;2.97;;;;;;;;;;5078648;28;20162;-73
2024/02/01 08:20:39;;;;;;;22.58;3.60;;;;;;;;;;5084227;28;20051;-73
2024/02/01 08:23:07;;;;;;;21.65;3.75;;;;;;;;;;5082538;28;20067;-73
2024/02/01 08:25:33;;;;;;;18.35;3.92;;;;;;;;;;5061455;28;20102;-73
2024/02/01 08:28:00;;;;;;;23.05;3.60;;;;;;;;;;5059934;28;20076;-73
2024/02/01 08:30:31;;;;;;;21.23;3.10;;;;;;;;;;5067292;28;20800;-73
2024/02/01 08:33:03;;;;;;;25.20;3.63;;;;;;;;;;5079420;28;20147;-73
2024/02/01 08:35:33;;;;;;;20.13;3.67;;;;;;;;;;5095553;28;20052;-73
2024/02/01 08:38:00;;;;;;;22.27;3.60;;;;;;;;;;5059975;28;20044;-73
2024/02/01 08:40:27;;;;;;;27.02;4.07;;;;;;;;;;5062714;28;20048;-74
2024/02/01 08:42:57;;;;;;;22.92;3.72;;;;;;;;;;5071673;28;20590;-72
2024/02/01 08:45:28;;;;;;;30.50;4.35;;;;;;;;;;5080756;28;20048;-72
2024/02/01 08:48:02;;;;;;;21.17;3.80;;;;;;;;;;5072036;28;20124;-72
2024/02/01 08:50:31;;;;;;;24.42;4.22;;;;;;;;;;5065175;28;20043;-72
2024/02/01 08:52:57;;;;;;;22.98;3.50;;;;;;;;;;5079430;28;20102;-72
2024/02/01 08:55:23;;;;;;;23.63;3.88;;;;;;;;;;5071398;28;20044;-72
2024/02/01 08:57:50;;;;;;;18.95;3.60;;;;;;;;;;5081638;28;20145;-72
2024/02/01 09:00:26;;;;;;;23.35;4.05;;;;;;;;;;5065105;28;20654;-72
2024/02/01 09:03:03;;;;;;;25.23;4.43;;;;;;;;;;5083831;28;20385;-72
2024/02/01 09:05:30;;;;;;;22.63;3.58;;;;;;;;;;5060547;28;20047;-72
2024/02/01 09:07:57;;;;;;;20.38;3.95;;;;;;;;;;5063371;28;20049;-72
2024/02/01 09:10:24;;;;;;;18.45;4.15;;;;;;;;;;5071444;28;20079;-72
2024/02/01 09:12:50;;;;;;;18.25;3.80;;;;;;;;;;5075772;28;20127;-73
2024/02/01 09:15:17;;;;;;;17.80;3.40;;;;;;;;;;5075191;28;20089;-72
2024/02/01 09:17:46;;;;;;;28.23;4.05;;;;;;;;;;5083990;28;20130;-72
2024/02/01 09:20:21;;;;;;;22.20;4.40;;;;;;;;;;5090021;28;20086;-72
2024/02/01 09:22:48;;;;;;;23.02;4.65;;;;;;;;;;5081275;28;20619;-72
2024/02/01 09:25:15;;;;;;;18.38;4.38;;;;;;;;;;5072244;28;20763;-72
2024/02/01 09:27:44;;;;;;;17.85;3.20;;;;;;;;;;5091778;28;20051;-71
2024/02/01 09:30:11;;;;;;;;;;;;;;;;;;5082516;28;20048;-72
2024/02/01 09:32:41;;;;;;;22.83;2.90;;;;;;;;;;5087568;28;20009;-72
2024/02/01 09:35:09;;;;;;;23.85;3.88;;;;;;;;;;5076812;28;20045;-72
2024/02/01 09:37:36;;;;;;;;;;;;;;;;;;5085650;28;20063;-72
2024/02/01 09:40:03;;;;;;;18.77;2.80;;;;;;;;;;5076620;28;20598;-73
2024/02/01 09:42:30;;;;;;;16.85;3.35;;;;;;;;;;5065166;28;20078;-72
2024/02/01 09:44:57;;;;;;;22.65;3.08;;;;;;;;;;5081903;28;20052;-71
2024/02/01 09:47:24;;;;;;;26.48;3.42;;;;;;;;;;5082086;28;20625;-72
2024/02/01 09:49:53;;;;;;;23.00;3.83;;;;;;;;;;5074720;28;20457;-72
2024/02/01 09:52:20;;;;;;;16.60;2.65;;;;;;;;;;5060880;28;20048;-72
2024/02/01 09:54:46;;;;;;;16.52;2.50;;;;;;;;;;5077032;28;20047;-72
2024/02/01 09:57:16;;;;;;;19.02;3.00;;;;;;;;;;5093246;28;20112;-72
2024/02/01 09:59:43;;;;;;;28.30;2.95;;;;;;;;;;5083614;28;20044;-72
2024/02/01 10:02:10;;;;;;;12.95;3.00;;;;;;;;;;5071329;28;20125;-72
2024/02/01 10:04:36;;;;;;;23.38;3.50;;;;;;;;;;5061630;28;20476;-72
2024/02/01 10:07:03;;;;;;;20.13;3.97;;;;;;;;;;5081905;28;20565;-72
2024/02/01 10:09:30;;;;;;;26.23;3.50;;;;;;;;;;5083195;28;20040;-72
2024/02/01 10:11:56;;;;;;;19.40;2.75;;;;;;;;;;5066701;28;20506;-71
2024/02/01 10:14:34;;;;;;;22.05;3.05;;;;;;;;;;5085881;28;20105;-72
2024/02/01 10:17:02;;;;;;;21.45;3.40;;;;;;;;;;5079955;28;20139;-72
2024/02/01 10:19:29;;;;;;;29.27;4.07;;;;;;;;;;5087417;28;20070;-72
2024/02/01 10:22:10;;;;;;;27.10;3.55;;;;;;;;;;5072558;28;20432;-72
2024/02/01 10:24:45;;;;;;;21.30;3.60;;;;;;;;;;5080925;28;20040;-72
2024/02/01 10:27:12;;;;;;;17.85;2.92;;;;;;;;;;5081800;28;20063;-73
2024/02/01 10:29:40;;;;;;;19.92;3.17;;;;;;;;;;5079520;28;20675;-72
2024/02/01 10:32:14;;;;;;;22.13;3.17;;;;;;;;;;5069650;28;20059;-72
2024/02/01 10:34:43;;;;;;;23.05;4.22;;;;;;;;;;5069416;28;20109;-72
2024/02/01 10:37:11;;;;;;;29.58;4.18;;;;;;;;;;5082167;28;20047;-72
2024/02/01 10:39:38;;;;;;;24.25;3.85;;;;;;;;;;5077769;28;20048;-72
2024/02/01 10:42:08;;;;;;;28.65;4.15;;;;;;;;;;5084472;28;20056;-72
2024/02/01 10:44:38;;;;;;;28.58;3.95;;;;;;;;;;5079502;28;20051;-73
2024/02/01 10:47:13;;;;;;;30.73;4.47;;;;;;;;;;5079339;28;20131;-72
2024/02/01 10:49:43;;;;;;;26.75;3.75;;;;;;;;;;5083409;28;20047;-72
2024/02/01 10:52:11;;;;;;;21.88;3.30;;;;;;;;;;5069372;28;20476;-73
2024/02/01 10:54:38;;;;;;;15.55;2.88;;;;;;;;;;5078296;28;20130;-71
2024/02/01 10:57:05;;;;;;;29.60;3.83;;;;;;;;;;5072626;28;20790;-72
2024/02/01 10:59:33;;;;;;;23.63;3.05;;;;;;;;;;5079688;28;20453;-71
2024/02/01 11:01:59;;;;;;;23.25;3.20;;;;;;;;;;5078529;28;20093;-72
2024/02/01 11:04:32;;;;;;;21.90;3.58;;;;;;;;;;5081793;28;20083;-71
2024/02/01 11:07:00;;;;;;;26.30;3.22;;;;;;;;;;5066422;28;20051;-71
2024/02/01 11:09:28;;;;;;;23.23;3.45;;;;;;;;;;5059743;28;20127;-71
2024/02/01 11:11:57;;;;;;;23.20;3.72;;;;;;;;;;5084095;28;20059;-72
2024/02/01 11:14:25;;;;;;;22.58;3.17;;;;;;;;;;5071825;28;20052;-72
2024/02/01 11:16:53;;;;;;;28.25;3.75;;;;;;;;;;5076998;28;20048;-72
2024/02/01 11:19:19;;;;;;;23.70;3.67;;;;;;;;;;5074510;28;20054;-72
2024/02/01 11:21:48;;;;;;;22.98;3.25;;;;;;;;;;5056262;28;20142;-71
2024/02/01 11:24:19;;;;;;;17.95;3.28;;;;;;;;;;5078411;28;20525;-71
2024/02/01 11:26:47;;;;;;;22.60;2.60;;;;;;;;;;5048054;28;20170;-72
2024/02/01 11:29:18;;;;;;;22.20;3.22;;;;;;;;;;5062091;28;20048;-71
2024/02/01 11:31:45;;;;;;;23.17;3.63;;;;;;;;;;5080278;28;20127;-73
2024/02/01 11:34:15;;;;;;;25.27;3.50;;;;;;;;;;5064864;28;20102;-72
2024/02/01 11:36:45;;;;;;;22.60;3.88;;;;;;;;;;5071407;28;20048;-72
2024/02/01 11:39:15;;;;;;;19.38;3.38;;;;;;;;;;5078632;28;20048;-71
2024/02/01 11:41:46;;;;;;;22.35;3.83;;;;;;;;;;5085704;28;20054;-72
2024/02/01 11:44:18;;;;;;;17.67;3.42;;;;;;;;;;5062144;28;20067;-73
2024/02/01 11:46:50;;;;;;;33.63;3.60;;;;;;;;;;5075890;28;20054;-73
2024/02/01 11:49:18;;;;;;;23.67;3.47;;;;;;;;;;5070872;28;20686;-73
2024/02/01 11:51:47;;;;;;;18.23;3.35;;;;;;;;;;5078476;28;20068;-73
2024/02/01 11:54:14;;;;;;;20.83;3.38;;;;;;;;;;5087334;28;20142;-73
2024/02/01 11:56:43;;;;;;;19.45;3.00;;;;;;;;;;5065273;28;20055;-72
2024/02/01 11:59:10;;;;;;;27.15;3.88;;;;;;;;;;5086593;28;20048;-73
2024/02/01 12:01:37;;;;;;;20.77;4.30;;;;;;;;;;5075361;28;20080;-73
2024/02/01 12:04:07;;;;;;;22.42;3.45;;;;;;;;;;5063734;28;20052;-73
2024/02/01 12:06:34;;;;;;;19.30;3.10;;;;;;;;;;5075475;28;20051;-73
2024/02/01 12:09:00;;;;;;;26.85;3.65;;;;;;;;;;5061228;28;20435;-73
2024/02/01 12:11:34;;;;;;;19.50;3.35;;;;;;;;;;5084690;28;20047;-73
2024/02/01 12:14:02;;;;;;;22.77;3.40;;;;;;;;;;5087799;28;20049;-73
2024/02/01 12:16:31;;;;;;;26.50;3.38;;;;;;;;;;5079408;28;20057;-73
2024/02/01 12:18:58;;;;;;;21.67;2.65;;;;;;;;;;5076364;28;20062;-73
2024/02/01 12:21:28;;;;;;;23.08;3.38;;;;;;;;;;5084772;28;20056;-73
2024/02/01 12:23:58;;;;;;;27.02;4.18;;;;;;;;;;5074993;28;20052;-73
2024/02/01 12:26:28;;;;;;;19.88;3.75;;;;;;;;;;5066219;28;20044;-73
2024/02/01 12:28:56;;;;;;;18.08;3.83;;;;;;;;;;5081276;28;20134;-73
2024/02/01 12:31:22;;;;;;;20.80;3.50;;;;;;;;;;5072480;28;20052;-73
2024/02/01 12:33:49;;;;;;;15.13;2.67;;;;;;;;;;5077311;28;20093;-73
2024/02/01 12:36:16;;;;;;;25.50;3.47;;;;;;;;;;5080546;28;20083;-73
2024/02/01 12:38:48;;;;;;;31.17;3.53;;;;;;;;;;5080947;28;20044;-73
2024/02/01 12:41:14;;;;;;;17.85;2.72;;;;;;;;;;5061087;28;20055;-73
2024/02/01 12:43:42;;;;;;;24.25;3.72;;;;;;;;;;5077825;28;20057;-73
2024/02/01 12:46:11;;;;;;;19.42;3.22;;;;;;;;;;5071555;28;20080;-72
2024/02/01 12:48:38;;;;;;;16.63;2.95;;;;;;;;;;5062789;28;20093;-72
2024/02/01 12:51:05;;;;;;;23.48;3.60;;;;;;;;;;5084475;28;20443;-72
2024/02/01 12:53:32;;;;;;;25.27;3.30;;;;;;;;;;5082658;28;20102;-73
2024/02/01 12:55:58;;;;;;;21.98;2.85;;;;;;;;;;5068221;28;20048;-72
2024/02/01 12:58:25;;;;;;;21.50;3.38;;;;;;;;;;5089009;28;20040;-72
2024/02/01 13:00:52;;;;;;;20.33;3.10;;;;;;;;;;5077785;28;20052;-72
2024/02/01 13:03:18;;;;;;;20.60;3.47;;;;;;;;;;5086840;28;20483;-72
2024/02/01 13:05:45;;;;;;;17.88;3.58;;;;;;;;;;5074383;28;20048;-74
2024/02/01 13:08:15;;;;;;;15.88;3.03;;;;;;;;;;5068548;28;20068;-72
2024/02/01 13:10:44;;;;;;;26.58;3.33;;;;;;;;;;5068688;28;20093;-72
2024/02/01 13:13:11;;;;;;;24.50;3.60;;;;;;;;;;5081539;28;20454;-72
2024/02/01 13:15:38;;;;;;;24.15;2.92;;;;;;;;;;5083024;28;20054;-72
2024/02/01 13:18:11;;;;;;;20.55;3.22;;;;;;;;;;5086001;28;20060;-72
2024/02/01 13:20:39;;;;;;;16.13;3.08;;;;;;;;;;5085444;28;20396;-72
2024/02/01 13:23:08;;;;;;;18.80;3.05;;;;;;;;;;5081750;28;20051;-72
2024/02/01 13:25:36;;;;;;;26.60;4.10;;;;;;;;;;5069963;28;20048;-72
2024/02/01 13:28:02;;;;;;;16.00;2.97;;;;;;;;;;5081113;28;20127;-72
2024/02/01 13:30:30;;;;;;;18.73;3.42;;;;;;;;;;5076767;28;20040;-72
2024/02/01 13:32:58;;;;;;;19.10;4.40;;;;;;;;;;5075837;28;20127;-72
2024/02/01 13:35:25;;;;;;;23.67;4.03;;;;;;;;;;5061428;28;20044;-72
2024/02/01 13:37:52;;;;;;;17.05;2.90;;;;;;;;;;5061091;28;20064;-72
2024/02/01 13:40:19;;;;;;;17.98;3.47;;;;;;;;;;5061534;28;20070;-72
2024/02/01 13:42:46;;;;;;;20.30;3.53;;;;;;;;;;5079890;28;20048;-72
2024/02/01 13:45:13;;;;;;;19.88;3.13;;;;;;;;;;5084296;28;20044;-72
2024/02/01 13:47:42;;;;;;;19.63;4.45;;;;;;;;;;5078858;28;20618;-72
2024/02/01 13:50:19;;;;;;;17.83;3.03;;;;;;;;;;5087666;28;20553;-72
2024/02/01 13:52:46;;;;;;;20.52;3.00;;;;;;;;;;5081459;28;20102;-72
2024/02/01 13:55:13;;;;;;;20.65;3.55;;;;;;;;;;5070361;28;20615;-72
2024/02/01 13:57:42;;;;;;;22.60;2.83;;;;;;;;;;5065130;28;20052;-73
2024/02/01 14:00:15;;;;;;;20.40;3.53;;;;;;;;;;5084069;28;20408;-73
2024/02/01 14:02:42;;;;;;;18.40;3.05;;;;;;;;;;5082126;28;20380;-72
2024/02/01 14:05:08;;;;;;;17.02;3.00;;;;;;;;;;5067878;28;20048;-72
2024/02/01 14:07:37;;;;;;;15.30;3.35;;;;;;;;;;5070336;28;20172;-73
2024/02/01 14:10:10;;;;;;;18.23;2.70;;;;;;;;;;5075731;28;20605;-72
2024/02/01 14:12:37;;;;;;;27.77;3.60;;;;;;;;;;5084511;28;20101;-72
2024/02/01 14:15:05;;;;;;;18.92;3.60;;;;;;;;;;5074427;28;20487;-73
2024/02/01 14:17:31;;;;;;;28.50;3.63;;;;;;;;;;5075371;28;20044;-72
2024/02/01 14:19:58;;;;;;;23.33;3.33;;;;;;;;;;5083668;28;20497;-72
2024/02/01 14:22:25;;;;;;;14.45;3.58;;;;;;;;;;5076333;28;20036;-72
2024/02/01 14:24:55;;;;;;;27.33;5.13;;;;;;;;;;5050932;28;20040;-72
2024/02/01 14:27:21;;;;;;;20.25;3.50;;;;;;;;;;5077482;28;20044;-72
2024/02/01 14:29:48;;;;;;;20.25;3.45;;;;;;;;;;5076514;28;20045;-72
2024/02/01 14:32:15;;;;;;;18.77;3.38;;;;;;;;;;5080262;28;20396;-72
2024/02/01 14:34:42;;;;;;;18.80;3.38;;;;;;;;;;5081093;28;20040;-72
2024/02/01 14:37:11;;;;;;;19.73;3.35;;;;;;;;;;5087128;28;20488;-72
2024/02/01 14:39:45;;;;;;;18.52;3.00;;;;;;;;;;5066782;28;20044;-72
2024/02/01 14:42:12;;;;;;;21.08;3.83;;;;;;;;;;5080556;28;20082;-72
2024/02/01 14:44:38;;;;;;;21.63;3.33;;;;;;;;;;5068530;28;20053;-72
2024/02/01 14:47:06;;;;;;;22.83;3.25;;;;;;;;;;5064561;28;20052;-72
2024/02/01 14:49:34;;;;;;;15.88;3.10;;;;;;;;;;5086791;28;20051;-72
2024/02/01 14:52:01;;;;;;;18.27;2.70;;;;;;;;;;5062783;28;20744;-73
2024/02/01 14:54:27;;;;;;;23.48;2.70;;;;;;;;;;5086041;28;20063;-72
2024/02/01 14:56:54;;;;;;;19.75;3.60;;;;;;;;;;5074461;28;20528;-72
2024/02/01 14:59:20;;;;;;;19.98;2.75;;;;;;;;;;5074530;28;20067;-72
2024/02/01 15:01:47;;;;;;;21.15;2.92;;;;;;;;;;5077418;28;20040;-73
2024/02/01 15:04:13;;;;;;;15.15;3.00;;;;;;;;;;5086192;28;20143;-72
2024/02/01 15:06:42;;;;;;;17.45;3.08;;;;;;;;;;5059533;28;20476;-72
2024/02/01 15:09:10;;;;;;;19.23;3.40;;;;;;;;;;5058944;28;20550;-72
2024/02/01 15:11:37;;;;;;;19.10;2.58;;;;;;;;;;5065034;28;20044;-72
2024/02/01 15:14:04;;;;;;;19.08;2.72;;;;;;;;;;5080514;28;20553;-72
2024/02/01 15:16:30;;;;;;;19.15;3.63;;;;;;;;;;5086250;28;20052;-71
2024/02/01 15:19:01;;;;;;;10.73;2.40;;;;;;;;;;5079693;28;20048;-71
2024/02/01 15:21:31;;;;;;;15.30;3.15;;;;;;;;;;5072280;28;21275;-72
2024/02/01 15:24:00;;;;;;;15.38;3.25;;;;;;;;;;5082732;28;20047;-72